createdAt,value
2018-05-08T00:00:30.180Z,22.71
2018-05-08T00:01:02.286Z,22.71
2018-05-08T00:01:34.304Z,22.71
2018-05-08T00:02:06.321Z,22.71
2018-05-08T00:02:38.359Z,22.71
2018-05-08T00:03:10.335Z,22.76
2018-05-08T00:03:42.422Z,22.7
2018-05-08T00:04:14.466Z,22.67
2018-05-08T00:04:46.624Z,22.61
2018-05-08T00:05:18.679Z,22.69
2018-05-08T00:05:50.685Z,22.67
2018-05-08T00:06:22.734Z,22.69
2018-05-08T00:06:54.750Z,22.67
2018-05-08T00:07:26.800Z,22.63
2018-05-08T00:07:58.965Z,22.57
2018-05-08T00:08:31.005Z,22.57
2018-05-08T00:09:03.092Z,22.63
2018-05-08T00:09:35.035Z,22.64
2018-05-08T00:10:07.160Z,22.61
2018-05-08T00:10:39.170Z,22.63
2018-05-08T00:11:11.217Z,22.63
2018-05-08T00:11:43.280Z,22.61
2018-05-08T00:12:15.293Z,22.61
2018-05-08T00:12:47.382Z,22.6
2018-05-08T00:13:19.446Z,22.63
2018-05-08T00:13:51.495Z,22.66
2018-05-08T00:14:23.527Z,22.57
2018-05-08T00:14:55.646Z,22.55
2018-05-08T00:15:27.677Z,22.55
2018-05-08T00:15:59.719Z,22.51
2018-05-08T00:16:31.740Z,22.6
2018-05-08T00:17:03.752Z,22.57
2018-05-08T00:17:35.766Z,22.6
2018-05-08T00:18:07.819Z,22.6
2018-05-08T00:18:39.913Z,22.57
2018-05-08T00:19:11.908Z,22.55
2018-05-08T00:19:43.930Z,22.51
2018-05-08T00:20:15.937Z,22.45
2018-05-08T00:20:47.951Z,22.48
2018-05-08T00:21:19.961Z,22.45
2018-05-08T00:21:51.988Z,22.57
2018-05-08T00:22:24.046Z,22.44
2018-05-08T00:22:56.128Z,22.48
2018-05-08T00:23:28.326Z,22.46
2018-05-08T00:24:00.409Z,22.45
2018-05-08T00:24:32.451Z,22.55
2018-05-08T00:25:04.489Z,22.51
2018-05-08T00:25:36.543Z,22.44
2018-05-08T00:26:08.563Z,22.51
2018-05-08T00:26:40.609Z,22.48
2018-05-08T00:27:12.654Z,22.45
2018-05-08T00:27:44.665Z,22.46
2018-05-08T00:28:16.715Z,22.44
2018-05-08T00:28:48.723Z,22.44
2018-05-08T00:29:20.735Z,22.45
2018-05-08T00:29:52.772Z,22.41
2018-05-08T00:30:24.824Z,22.45
2018-05-08T00:30:56.834Z,22.44
2018-05-08T00:31:28.851Z,22.33
2018-05-08T00:32:00.905Z,22.39
2018-05-08T00:32:32.908Z,22.41
2018-05-08T00:33:04.929Z,22.41
2018-05-08T00:33:36.967Z,22.34
2018-05-08T00:34:09.020Z,22.33
2018-05-08T00:34:41.171Z,22.38
2018-05-08T00:35:13.207Z,22.41
2018-05-08T00:35:45.242Z,22.41
2018-05-08T00:36:17.294Z,22.38
2018-05-08T00:36:49.353Z,22.3
2018-05-08T00:37:21.410Z,22.39
2018-05-08T00:37:53.428Z,22.33
2018-05-08T00:38:25.502Z,22.3
2018-05-08T00:38:57.559Z,22.39
2018-05-08T00:39:29.576Z,22.39
2018-05-08T00:40:01.623Z,22.38
2018-05-08T00:40:33.709Z,22.31
2018-05-08T00:41:05.785Z,22.33
2018-05-08T00:41:37.850Z,22.26
2018-05-08T00:42:09.894Z,22.3
2018-05-08T00:42:42.035Z,22.27
2018-05-08T00:43:14.090Z,22.27
2018-05-08T00:43:46.101Z,22.23
2018-05-08T00:44:18.147Z,22.29
2018-05-08T00:44:50.205Z,22.24
2018-05-08T00:45:23.044Z,22.33
2018-05-08T00:45:55.096Z,22.26
2018-05-08T00:46:27.108Z,22.26
2018-05-08T00:46:59.101Z,22.29
2018-05-08T00:47:31.244Z,22.29
2018-05-08T00:48:03.234Z,22.15
2018-05-08T00:48:35.246Z,22.24
2018-05-08T00:49:08.158Z,22.24
2018-05-08T00:49:40.186Z,22.3
2018-05-08T00:50:12.227Z,22.31
2018-05-08T00:50:44.266Z,22.31
2018-05-08T00:51:16.298Z,22.24
2018-05-08T00:51:48.309Z,22.27
2018-05-08T00:52:20.357Z,22.27
2018-05-08T00:52:52.368Z,22.22
2018-05-08T00:53:24.391Z,22.2
2018-05-08T00:53:56.418Z,22.26
2018-05-08T00:54:28.466Z,22.24
2018-05-08T00:55:00.544Z,22.18
2018-05-08T00:55:32.688Z,22.2
2018-05-08T00:56:04.706Z,22.09
2018-05-08T00:56:36.759Z,22.22
2018-05-08T00:57:08.776Z,22.2
2018-05-08T00:57:40.923Z,22.24
2018-05-08T00:58:13.757Z,22.14
2018-05-08T00:58:45.778Z,22.08
2018-05-08T00:59:17.824Z,22.08
2018-05-08T00:59:49.929Z,22.08
2018-05-08T01:00:21.928Z,22.09
2018-05-08T01:00:53.970Z,22.18
2018-05-08T01:01:26.010Z,22.09
2018-05-08T01:01:58.007Z,22.16
2018-05-08T01:02:30.080Z,22.09
2018-05-08T01:03:02.126Z,22.09
2018-05-08T01:03:34.147Z,22.15
2018-05-08T01:04:06.145Z,22.12
2018-05-08T01:04:38.132Z,22.16
2018-05-08T01:05:11.082Z,22.08
2018-05-08T01:05:43.134Z,22.11
2018-05-08T01:06:15.252Z,22.14
2018-05-08T01:06:47.401Z,22.08
2018-05-08T01:07:19.438Z,22.11
2018-05-08T01:07:51.460Z,22.12
2018-05-08T01:08:23.487Z,22.12
2018-05-08T01:08:55.642Z,22.09
2018-05-08T01:09:27.775Z,22.15
2018-05-08T01:09:59.785Z,22.12
2018-05-08T01:10:31.823Z,22.11
2018-05-08T01:11:03.856Z,22.11
2018-05-08T01:11:35.955Z,22.11
2018-05-08T01:12:07.997Z,22.12
2018-05-08T01:12:40.024Z,22.07
2018-05-08T01:13:12.060Z,22.07
2018-05-08T01:13:44.091Z,22
2018-05-08T01:14:16.122Z,22.07
2018-05-08T01:14:48.174Z,22.08
2018-05-08T01:15:20.215Z,22.07
2018-05-08T01:15:52.257Z,22.08
2018-05-08T01:16:24.264Z,21.97
2018-05-08T01:16:56.301Z,22.07
2018-05-08T01:17:28.443Z,22.05
2018-05-08T01:18:00.531Z,21.99
2018-05-08T01:18:32.575Z,22.05
2018-05-08T01:19:04.602Z,21.9
2018-05-08T01:19:36.617Z,22
2018-05-08T01:20:08.644Z,22
2018-05-08T01:20:40.658Z,21.92
2018-05-08T01:21:12.712Z,21.97
2018-05-08T01:21:44.923Z,21.94
2018-05-08T01:22:16.986Z,21.97
2018-05-08T01:22:49.030Z,21.93
2018-05-08T01:23:21.075Z,21.97
2018-05-08T01:23:53.147Z,21.92
2018-05-08T01:24:25.258Z,21.93
2018-05-08T01:24:57.370Z,21.94
2018-05-08T01:25:29.436Z,21.93
2018-05-08T01:26:01.472Z,21.93
2018-05-08T01:26:33.524Z,21.9
2018-05-08T01:27:05.592Z,21.89
2018-05-08T01:27:37.747Z,21.93
2018-05-08T01:28:10.461Z,21.89
2018-05-08T01:28:42.487Z,21.89
2018-05-08T01:29:14.528Z,21.93
2018-05-08T01:29:46.579Z,21.89
2018-05-08T01:30:18.579Z,21.89
2018-05-08T01:30:50.627Z,21.89
2018-05-08T01:31:22.647Z,21.83
2018-05-08T01:31:54.610Z,21.73
2018-05-08T01:32:26.679Z,21.86
2018-05-08T01:32:58.730Z,21.89
2018-05-08T01:33:30.778Z,21.86
2018-05-08T01:34:02.791Z,21.83
2018-05-08T01:34:34.844Z,21.92
2018-05-08T01:35:07.013Z,21.8
2018-05-08T01:35:39.051Z,21.78
2018-05-08T01:36:11.105Z,21.76
2018-05-08T01:36:43.148Z,21.77
2018-05-08T01:37:15.195Z,21.78
2018-05-08T01:37:47.180Z,21.83
2018-05-08T01:38:19.180Z,21.85
2018-05-08T01:38:51.299Z,21.83
2018-05-08T01:39:23.420Z,21.83
2018-05-08T01:39:55.444Z,21.74
2018-05-08T01:40:27.489Z,21.74
2018-05-08T01:40:59.478Z,21.86
2018-05-08T01:41:32.160Z,21.78
2018-05-08T01:42:04.199Z,21.8
2018-05-08T01:42:36.252Z,21.74
2018-05-08T01:43:08.399Z,21.74
2018-05-08T01:43:40.469Z,21.77
2018-05-08T01:44:12.469Z,21.82
2018-05-08T01:44:44.503Z,21.74
2018-05-08T01:45:16.531Z,21.76
2018-05-08T01:45:48.560Z,21.78
2018-05-08T01:46:20.551Z,21.66
2018-05-08T01:46:52.555Z,21.73
2018-05-08T01:47:24.623Z,21.71
2018-05-08T01:47:56.671Z,21.73
2018-05-08T01:48:28.696Z,21.71
2018-05-08T01:49:00.739Z,21.76
2018-05-08T01:49:32.811Z,21.68
2018-05-08T01:50:04.817Z,21.73
2018-05-08T01:50:36.852Z,21.56
2018-05-08T01:51:08.870Z,21.67
2018-05-08T01:51:40.881Z,21.68
2018-05-08T01:52:12.952Z,21.68
2018-05-08T01:52:44.967Z,21.68
2018-05-08T01:53:17.003Z,21.61
2018-05-08T01:53:49.035Z,21.67
2018-05-08T01:54:21.050Z,21.7
2018-05-08T01:54:53.048Z,21.67
2018-05-08T01:55:25.101Z,21.71
2018-05-08T01:55:57.120Z,21.74
2018-05-08T01:56:29.164Z,21.68
2018-05-08T01:57:01.203Z,21.73
2018-05-08T01:57:33.252Z,21.67
2018-05-08T01:58:05.266Z,21.62
2018-05-08T01:58:37.298Z,21.58
2018-05-08T01:59:09.319Z,21.58
2018-05-08T01:59:41.334Z,21.62
2018-05-08T02:00:13.379Z,21.61
2018-05-08T02:00:45.390Z,21.62
2018-05-08T02:01:17.426Z,21.58
2018-05-08T02:01:49.458Z,21.58
2018-05-08T02:02:21.501Z,21.55
2018-05-08T02:02:53.560Z,21.52
2018-05-08T02:03:25.604Z,21.58
2018-05-08T02:03:57.605Z,21.49
2018-05-08T02:04:29.616Z,21.53
2018-05-08T02:05:01.643Z,21.56
2018-05-08T02:05:33.691Z,21.64
2018-05-08T02:06:05.729Z,21.64
2018-05-08T02:06:37.839Z,21.55
2018-05-08T02:07:09.859Z,21.52
2018-05-08T02:07:41.890Z,21.56
2018-05-08T02:08:13.864Z,21.59
2018-05-08T02:08:45.926Z,21.48
2018-05-08T02:09:17.975Z,21.51
2018-05-08T02:09:50.114Z,21.59
2018-05-08T02:10:22.159Z,21.53
2018-05-08T02:10:54.185Z,21.49
2018-05-08T02:11:26.227Z,21.53
2018-05-08T02:11:58.371Z,21.48
2018-05-08T02:12:30.408Z,21.52
2018-05-08T02:13:02.424Z,21.48
2018-05-08T02:13:34.415Z,21.48
2018-05-08T02:14:06.450Z,21.41
2018-05-08T02:14:38.530Z,21.55
2018-05-08T02:15:10.566Z,21.51
2018-05-08T02:15:42.698Z,21.41
2018-05-08T02:16:14.725Z,21.52
2018-05-08T02:16:46.745Z,21.52
2018-05-08T02:17:18.815Z,21.49
2018-05-08T02:17:50.833Z,21.49
2018-05-08T02:18:22.870Z,21.53
2018-05-08T02:18:54.875Z,21.45
2018-05-08T02:19:26.906Z,21.45
2018-05-08T02:19:58.928Z,21.51
2018-05-08T02:20:30.988Z,21.37
2018-05-08T02:21:03.005Z,21.51
2018-05-08T02:21:35.051Z,21.53
2018-05-08T02:22:07.075Z,21.37
2018-05-08T02:22:39.098Z,21.41
2018-05-08T02:23:11.144Z,21.52
2018-05-08T02:23:43.166Z,21.41
2018-05-08T02:24:15.284Z,21.4
2018-05-08T02:24:47.315Z,21.45
2018-05-08T02:25:19.371Z,21.43
2018-05-08T02:25:51.388Z,21.34
2018-05-08T02:26:23.516Z,21.36
2018-05-08T02:26:55.705Z,21.4
2018-05-08T02:27:27.732Z,21.41
2018-05-08T02:27:59.791Z,21.36
2018-05-08T02:28:35.707Z,21.4
2018-05-08T02:29:07.750Z,21.4
2018-05-08T02:29:39.752Z,21.34
2018-05-08T02:30:11.783Z,21.34
2018-05-08T02:30:43.804Z,21.38
2018-05-08T02:31:15.825Z,21.36
2018-05-08T02:31:47.888Z,21.36
2018-05-08T02:32:19.967Z,21.37
2018-05-08T02:32:52.092Z,21.36
2018-05-08T02:33:24.015Z,21.38
2018-05-08T02:33:56.112Z,21.34
2018-05-08T02:34:28.148Z,21.34
2018-05-08T02:35:00.175Z,21.34
2018-05-08T02:35:32.201Z,21.36
2018-05-08T02:36:04.272Z,21.34
2018-05-08T02:36:36.309Z,21.31
2018-05-08T02:37:08.338Z,21.31
2018-05-08T02:37:40.328Z,21.31
2018-05-08T02:38:12.365Z,21.36
2018-05-08T02:38:44.420Z,21.31
2018-05-08T02:39:16.440Z,21.36
2018-05-08T02:39:48.435Z,21.31
2018-05-08T02:40:20.474Z,21.33
2018-05-08T02:40:52.491Z,21.27
2018-05-08T02:41:24.501Z,21.34
2018-05-08T02:41:56.531Z,21.25
2018-05-08T02:42:28.572Z,21.23
2018-05-08T02:43:00.598Z,21.34
2018-05-08T02:43:32.644Z,21.25
2018-05-08T02:44:04.679Z,21.27
2018-05-08T02:44:36.726Z,21.28
2018-05-08T02:45:08.762Z,21.27
2018-05-08T02:45:40.773Z,21.28
2018-05-08T02:46:12.777Z,21.31
2018-05-08T02:46:44.791Z,21.27
2018-05-08T02:47:16.935Z,21.23
2018-05-08T02:47:48.977Z,21.21
2018-05-08T02:48:21.042Z,21.23
2018-05-08T02:48:53.055Z,21.23
2018-05-08T02:49:25.089Z,21.21
2018-05-08T02:49:57.125Z,21.25
2018-05-08T02:50:29.183Z,21.22
2018-05-08T02:51:01.232Z,21.23
2018-05-08T02:51:33.327Z,21.19
2018-05-08T02:52:05.526Z,21.3
2018-05-08T02:52:37.599Z,21.3
2018-05-08T02:53:09.785Z,21.22
2018-05-08T02:53:41.825Z,21.3
2018-05-08T02:54:13.876Z,21.21
2018-05-08T02:54:45.876Z,21.22
2018-05-08T02:55:18.043Z,21.21
2018-05-08T02:55:50.111Z,21.25
2018-05-08T02:56:22.145Z,21.25
2018-05-08T02:56:54.909Z,21.19
2018-05-08T02:57:26.965Z,21.22
2018-05-08T02:57:59.804Z,21.21
2018-05-08T02:58:31.798Z,21.19
2018-05-08T02:59:03.856Z,21.23
2018-05-08T02:59:35.861Z,21.19
2018-05-08T03:00:07.929Z,21.15
2018-05-08T03:00:39.968Z,21.16
2018-05-08T03:01:11.993Z,21.19
2018-05-08T03:01:44.033Z,21.15
2018-05-08T03:02:16.054Z,21.21
2018-05-08T03:02:48.100Z,21.19
2018-05-08T03:03:20.118Z,21.09
2018-05-08T03:03:52.160Z,21.13
2018-05-08T03:04:24.200Z,21.13
2018-05-08T03:04:56.324Z,21.18
2018-05-08T03:05:28.352Z,21.12
2018-05-08T03:06:00.527Z,21.16
2018-05-08T03:06:32.648Z,21.11
2018-05-08T03:07:04.662Z,21.12
2018-05-08T03:07:36.715Z,21.18
2018-05-08T03:08:08.751Z,21.09
2018-05-08T03:08:40.827Z,21.11
2018-05-08T03:09:12.879Z,21.13
2018-05-08T03:09:44.928Z,21.13
2018-05-08T03:10:16.953Z,21.11
2018-05-08T03:10:48.967Z,21.11
2018-05-08T03:11:20.999Z,21.06
2018-05-08T03:11:53.026Z,21.03
2018-05-08T03:12:25.002Z,21.03
2018-05-08T03:12:57.049Z,21
2018-05-08T03:13:29.072Z,21.08
2018-05-08T03:14:01.060Z,21.11
2018-05-08T03:14:33.110Z,21.04
2018-05-08T03:15:05.120Z,21.13
2018-05-08T03:15:37.181Z,21.09
2018-05-08T03:16:09.247Z,21.11
2018-05-08T03:16:41.283Z,21.08
2018-05-08T03:17:13.290Z,21.06
2018-05-08T03:17:45.418Z,21.08
2018-05-08T03:18:17.474Z,21
2018-05-08T03:18:49.496Z,21.06
2018-05-08T03:19:21.528Z,21
2018-05-08T03:19:53.591Z,21.04
2018-05-08T03:20:25.632Z,20.96
2018-05-08T03:20:57.670Z,21.04
2018-05-08T03:21:29.757Z,21
2018-05-08T03:22:01.832Z,21.06
2018-05-08T03:22:33.854Z,21
2018-05-08T03:23:05.895Z,21.04
2018-05-08T03:23:37.964Z,21.03
2018-05-08T03:24:09.944Z,21
2018-05-08T03:24:41.976Z,21.01
2018-05-08T03:25:14.101Z,21.08
2018-05-08T03:25:46.123Z,21.06
2018-05-08T03:26:18.142Z,20.97
2018-05-08T03:26:50.171Z,20.98
2018-05-08T03:27:22.282Z,21.04
2018-05-08T03:27:54.348Z,21
2018-05-08T03:28:26.384Z,21
2018-05-08T03:28:58.408Z,20.97
2018-05-08T03:29:30.400Z,21.04
2018-05-08T03:30:02.433Z,21.03
2018-05-08T03:30:34.452Z,20.9
2018-05-08T03:31:06.462Z,20.88
2018-05-08T03:31:38.499Z,21.06
2018-05-08T03:32:10.524Z,20.91
2018-05-08T03:32:42.588Z,20.98
2018-05-08T03:33:14.582Z,21.06
2018-05-08T03:33:46.661Z,20.96
2018-05-08T03:34:18.651Z,20.88
2018-05-08T03:34:50.694Z,20.98
2018-05-08T03:35:22.771Z,21.09
2018-05-08T03:35:54.780Z,20.97
2018-05-08T03:36:26.809Z,20.96
2018-05-08T03:36:58.844Z,20.98
2018-05-08T03:37:30.844Z,20.96
2018-05-08T03:38:02.864Z,21.04
2018-05-08T03:38:34.940Z,20.97
2018-05-08T03:39:06.963Z,20.98
2018-05-08T03:39:38.982Z,20.98
2018-05-08T03:40:11.012Z,20.97
2018-05-08T03:40:43.028Z,20.98
2018-05-08T03:41:15.049Z,20.9
2018-05-08T03:41:47.109Z,21.01
2018-05-08T03:42:19.147Z,20.93
2018-05-08T03:42:51.240Z,20.88
2018-05-08T03:43:23.301Z,20.9
2018-05-08T03:43:55.350Z,20.9
2018-05-08T03:44:27.539Z,20.96
2018-05-08T03:44:59.576Z,20.86
2018-05-08T03:45:31.624Z,20.91
2018-05-08T03:46:03.657Z,20.96
2018-05-08T03:46:35.678Z,20.88
2018-05-08T03:47:07.771Z,20.98
2018-05-08T03:47:39.784Z,20.94
2018-05-08T03:48:11.813Z,20.9
2018-05-08T03:48:43.858Z,20.93
2018-05-08T03:49:15.861Z,20.93
2018-05-08T03:49:47.890Z,20.97
2018-05-08T03:50:20.530Z,20.97
2018-05-08T03:50:52.580Z,20.91
2018-05-08T03:51:24.613Z,20.9
2018-05-08T03:51:56.625Z,20.91
2018-05-08T03:52:28.719Z,20.91
2018-05-08T03:53:00.748Z,20.94
2018-05-08T03:53:32.814Z,20.85
2018-05-08T03:54:04.899Z,20.91
2018-05-08T03:54:36.931Z,20.96
2018-05-08T03:55:08.963Z,20.93
2018-05-08T03:55:41.007Z,20.81
2018-05-08T03:56:13.025Z,20.86
2018-05-08T03:56:45.087Z,20.79
2018-05-08T03:57:17.143Z,20.86
2018-05-08T03:57:49.271Z,20.81
2018-05-08T03:58:21.345Z,20.82
2018-05-08T03:58:53.364Z,20.82
2018-05-08T03:59:25.437Z,20.83
2018-05-08T03:59:57.419Z,20.83
2018-05-08T04:00:29.437Z,20.76
2018-05-08T04:01:01.500Z,20.83
2018-05-08T04:01:33.502Z,20.79
2018-05-08T04:02:05.574Z,20.82
2018-05-08T04:02:37.674Z,20.88
2018-05-08T04:03:09.681Z,20.83
2018-05-08T04:03:41.725Z,20.81
2018-05-08T04:04:14.736Z,20.81
2018-05-08T04:04:46.754Z,20.75
2018-05-08T04:05:18.820Z,20.85
2018-05-08T04:05:50.937Z,20.79
2018-05-08T04:06:22.979Z,20.78
2018-05-08T04:06:55.028Z,20.85
2018-05-08T04:07:27.062Z,20.78
2018-05-08T04:07:59.103Z,20.78
2018-05-08T04:08:31.124Z,20.81
2018-05-08T04:09:03.161Z,20.86
2018-05-08T04:09:35.192Z,20.86
2018-05-08T04:10:07.245Z,20.79
2018-05-08T04:10:39.280Z,20.83
2018-05-08T04:11:11.252Z,20.83
2018-05-08T04:11:43.261Z,20.83
2018-05-08T04:12:15.285Z,20.81
2018-05-08T04:12:47.314Z,20.82
2018-05-08T04:13:19.409Z,20.76
2018-05-08T04:13:51.456Z,20.78
2018-05-08T04:14:23.510Z,20.81
2018-05-08T04:14:55.586Z,20.79
2018-05-08T04:15:27.720Z,20.75
2018-05-08T04:15:59.716Z,20.79
2018-05-08T04:16:31.755Z,20.72
2018-05-08T04:17:03.783Z,20.81
2018-05-08T04:17:35.787Z,20.76
2018-05-08T04:18:07.808Z,20.75
2018-05-08T04:18:40.740Z,20.76
2018-05-08T04:19:12.737Z,20.75
2018-05-08T04:19:44.736Z,20.79
2018-05-08T04:20:16.747Z,20.72
2018-05-08T04:20:48.785Z,20.76
2018-05-08T04:21:20.830Z,20.78
2018-05-08T04:21:52.859Z,20.81
2018-05-08T04:22:24.891Z,20.82
2018-05-08T04:22:57.019Z,20.78
2018-05-08T04:23:29.851Z,20.72
2018-05-08T04:24:01.860Z,20.78
2018-05-08T04:24:33.916Z,20.79
2018-05-08T04:25:05.939Z,20.81
2018-05-08T04:25:37.963Z,20.78
2018-05-08T04:26:10.013Z,20.79
2018-05-08T04:26:42.651Z,20.78
2018-05-08T04:27:14.667Z,20.81
2018-05-08T04:27:46.707Z,20.67
2018-05-08T04:28:18.782Z,20.75
2018-05-08T04:28:50.812Z,20.75
2018-05-08T04:29:22.842Z,20.74
2018-05-08T04:29:54.958Z,20.72
2018-05-08T04:30:26.997Z,20.76
2018-05-08T04:30:59.011Z,20.72
2018-05-08T04:31:32.522Z,20.68
2018-05-08T04:32:04.590Z,20.75
2018-05-08T04:32:36.580Z,20.72
2018-05-08T04:33:08.620Z,20.76
2018-05-08T04:33:40.647Z,20.81
2018-05-08T04:34:12.667Z,20.79
2018-05-08T04:34:44.709Z,20.71
2018-05-08T04:35:16.764Z,20.76
2018-05-08T04:35:48.760Z,20.78
2018-05-08T04:36:20.777Z,20.67
2018-05-08T04:36:52.828Z,20.79
2018-05-08T04:37:24.871Z,20.72
2018-05-08T04:37:56.888Z,20.75
2018-05-08T04:38:28.909Z,20.79
2018-05-08T04:39:00.962Z,20.75
2018-05-08T04:39:32.986Z,20.72
2018-05-08T04:40:05.047Z,20.81
2018-05-08T04:40:37.154Z,20.78
2018-05-08T04:41:09.200Z,20.67
2018-05-08T04:41:41.233Z,20.76
2018-05-08T04:42:13.253Z,20.79
2018-05-08T04:42:45.311Z,20.81
2018-05-08T04:43:17.333Z,20.72
2018-05-08T04:43:49.328Z,20.81
2018-05-08T04:44:25.235Z,20.79
2018-05-08T04:44:57.281Z,20.76
2018-05-08T04:45:29.291Z,20.81
2018-05-08T04:46:02.366Z,20.75
2018-05-08T04:46:34.330Z,20.78
2018-05-08T04:47:06.383Z,20.79
2018-05-08T04:47:38.401Z,20.76
2018-05-08T04:48:10.390Z,20.75
2018-05-08T04:48:42.462Z,20.79
2018-05-08T04:49:14.513Z,20.82
2018-05-08T04:49:46.507Z,20.85
2018-05-08T04:50:18.527Z,20.79
2018-05-08T04:50:50.577Z,20.83
2018-05-08T04:51:22.607Z,20.83
2018-05-08T04:51:54.637Z,20.78
2018-05-08T04:52:26.795Z,20.86
2018-05-08T04:52:58.800Z,20.79
2018-05-08T04:53:30.858Z,20.86
2018-05-08T04:54:02.842Z,20.79
2018-05-08T04:54:35.001Z,20.82
2018-05-08T04:55:07.102Z,20.79
2018-05-08T04:55:39.097Z,20.82
2018-05-08T04:56:11.146Z,20.83
2018-05-08T04:56:43.174Z,20.81
2018-05-08T04:57:15.262Z,20.81
2018-05-08T04:57:47.264Z,20.81
2018-05-08T04:58:19.271Z,20.86
2018-05-08T04:58:51.275Z,20.76
2018-05-08T04:59:23.277Z,20.81
2018-05-08T04:59:55.271Z,20.93
2018-05-08T05:00:27.287Z,20.91
2018-05-08T05:00:59.286Z,20.94
2018-05-08T05:01:31.343Z,20.9
2018-05-08T05:02:03.370Z,20.93
2018-05-08T05:02:35.417Z,20.93
2018-05-08T05:03:07.498Z,20.85
2018-05-08T05:03:39.515Z,20.91
2018-05-08T05:04:11.535Z,20.96
2018-05-08T05:04:43.557Z,20.97
2018-05-08T05:05:15.567Z,20.86
2018-05-08T05:05:47.565Z,20.97
2018-05-08T05:06:19.561Z,20.91
2018-05-08T05:06:51.696Z,20.88
2018-05-08T05:07:23.685Z,20.97
2018-05-08T05:07:55.727Z,20.85
2018-05-08T05:08:27.780Z,20.96
2018-05-08T05:08:59.810Z,21.01
2018-05-08T05:09:31.860Z,21
2018-05-08T05:10:03.915Z,20.91
2018-05-08T05:10:36.015Z,20.83
2018-05-08T05:11:08.633Z,21.03
2018-05-08T05:11:40.613Z,21
2018-05-08T05:12:12.753Z,20.96
2018-05-08T05:12:44.751Z,20.97
2018-05-08T05:13:16.733Z,21.06
2018-05-08T05:13:48.738Z,21.04
2018-05-08T05:14:21.370Z,21.04
2018-05-08T05:14:53.415Z,20.96
2018-05-08T05:15:25.431Z,21.03
2018-05-08T05:15:57.515Z,21.06
2018-05-08T05:16:29.504Z,21.01
2018-05-08T05:17:01.542Z,21.03
2018-05-08T05:17:33.545Z,21.06
2018-05-08T05:18:05.602Z,21.03
2018-05-08T05:18:37.617Z,21.06
2018-05-08T05:19:09.662Z,21.11
2018-05-08T05:19:41.659Z,21.12
2018-05-08T05:20:14.183Z,21.09
2018-05-08T05:20:46.199Z,21.11
2018-05-08T05:21:18.223Z,21.13
2018-05-08T05:21:50.281Z,21.18
2018-05-08T05:22:22.312Z,21.16
2018-05-08T05:22:54.298Z,21.15
2018-05-08T05:23:26.320Z,21.13
2018-05-08T05:23:58.333Z,21.21
2018-05-08T05:24:30.454Z,21.19
2018-05-08T05:25:02.411Z,21.18
2018-05-08T05:25:34.449Z,21.16
2018-05-08T05:26:06.483Z,21.31
2018-05-08T05:26:38.648Z,21.21
2018-05-08T05:27:10.677Z,21.23
2018-05-08T05:27:42.719Z,21.21
2018-05-08T05:28:14.853Z,21.23
2018-05-08T05:28:46.875Z,21.23
2018-05-08T05:29:18.884Z,21.36
2018-05-08T05:29:51.003Z,21.36
2018-05-08T05:30:23.363Z,21.31
2018-05-08T05:30:56.345Z,21.31
2018-05-08T05:31:28.476Z,21.37
2018-05-08T05:32:00.535Z,21.34
2018-05-08T05:32:33.078Z,21.34
2018-05-08T05:33:05.090Z,21.4
2018-05-08T05:33:37.109Z,21.45
2018-05-08T05:34:09.285Z,21.41
2018-05-08T05:34:41.379Z,21.41
2018-05-08T05:35:13.472Z,21.43
2018-05-08T05:35:45.513Z,21.46
2018-05-08T05:36:17.541Z,21.48
2018-05-08T05:36:49.526Z,21.46
2018-05-08T05:37:21.796Z,21.58
2018-05-08T05:37:53.805Z,21.45
2018-05-08T05:38:25.846Z,21.49
2018-05-08T05:38:57.924Z,21.52
2018-05-08T05:39:30.053Z,21.53
2018-05-08T05:40:02.110Z,21.59
2018-05-08T05:40:34.171Z,21.61
2018-05-08T05:41:06.198Z,21.64
2018-05-08T05:41:38.209Z,21.67
2018-05-08T05:42:10.207Z,21.58
2018-05-08T05:42:42.272Z,21.62
2018-05-08T05:43:14.421Z,21.67
2018-05-08T05:43:46.447Z,21.66
2018-05-08T05:44:18.474Z,21.68
2018-05-08T05:44:50.491Z,21.71
2018-05-08T05:45:22.544Z,21.76
2018-05-08T05:45:54.638Z,21.76
2018-05-08T05:46:26.785Z,21.71
2018-05-08T05:46:58.817Z,21.77
2018-05-08T05:47:30.842Z,21.8
2018-05-08T05:48:02.919Z,21.76
2018-05-08T05:48:34.915Z,21.8
2018-05-08T05:49:06.963Z,21.86
2018-05-08T05:49:39.015Z,21.9
2018-05-08T05:50:11.025Z,21.76
2018-05-08T05:50:43.063Z,21.85
2018-05-08T05:51:15.097Z,21.86
2018-05-08T05:51:47.094Z,21.96
2018-05-08T05:52:19.116Z,21.97
2018-05-08T05:52:51.182Z,22.02
2018-05-08T05:53:23.206Z,21.99
2018-05-08T05:53:55.315Z,22.04
2018-05-08T05:54:27.337Z,22.07
2018-05-08T05:54:59.380Z,22.12
2018-05-08T05:55:31.426Z,22.11
2018-05-08T05:56:03.511Z,22.11
2018-05-08T05:56:35.538Z,22.05
2018-05-08T05:57:07.551Z,22.08
2018-05-08T05:57:39.599Z,22.11
2018-05-08T05:58:11.636Z,22.12
2018-05-08T05:58:43.691Z,22.12
2018-05-08T05:59:15.738Z,22.14
2018-05-08T05:59:47.759Z,22.24
2018-05-08T06:00:19.849Z,22.24
2018-05-08T06:00:51.911Z,22.27
2018-05-08T06:01:23.918Z,22.31
2018-05-08T06:01:55.963Z,22.27
2018-05-08T06:02:27.985Z,22.26
2018-05-08T06:02:59.967Z,22.3
2018-05-08T06:03:32.015Z,22.34
2018-05-08T06:04:04.048Z,22.38
2018-05-08T06:04:36.082Z,22.34
2018-05-08T06:05:08.575Z,22.38
2018-05-08T06:05:40.625Z,22.36
2018-05-08T06:06:12.663Z,22.49
2018-05-08T06:06:44.762Z,22.49
2018-05-08T06:07:16.822Z,22.42
2018-05-08T06:07:48.810Z,22.48
2018-05-08T06:08:20.928Z,22.54
2018-05-08T06:08:53.354Z,22.48
2018-05-08T06:09:25.335Z,22.61
2018-05-08T06:09:57.486Z,22.49
2018-05-08T06:10:29.598Z,22.48
2018-05-08T06:11:03.099Z,22.61
2018-05-08T06:11:37.605Z,22.6
2018-05-08T06:12:09.655Z,22.67
2018-05-08T06:12:41.826Z,22.64
2018-05-08T06:13:13.924Z,22.55
2018-05-08T06:13:45.960Z,22.69
2018-05-08T06:14:18.128Z,22.75
2018-05-08T06:14:50.151Z,22.67
2018-05-08T06:15:22.173Z,22.73
2018-05-08T06:15:54.301Z,22.75
2018-05-08T06:16:26.369Z,22.78
2018-05-08T06:16:58.373Z,22.78
2018-05-08T06:17:30.418Z,22.84
2018-05-08T06:18:02.402Z,22.85
2018-05-08T06:18:34.461Z,22.85
2018-05-08T06:19:06.460Z,22.89
2018-05-08T06:19:38.493Z,22.92
2018-05-08T06:20:10.540Z,22.89
2018-05-08T06:20:42.704Z,22.96
2018-05-08T06:21:15.185Z,22.88
2018-05-08T06:21:47.237Z,22.96
2018-05-08T06:22:19.292Z,23.01
2018-05-08T06:22:51.309Z,23.06
2018-05-08T06:23:23.362Z,23.03
2018-05-08T06:23:55.402Z,23
2018-05-08T06:24:27.591Z,23.01
2018-05-08T06:24:59.669Z,23.15
2018-05-08T06:25:31.725Z,23.07
2018-05-08T06:26:03.830Z,23.07
2018-05-08T06:26:35.924Z,23.06
2018-05-08T06:27:08.126Z,23.06
2018-05-08T06:27:41.094Z,23.14
2018-05-08T06:28:13.547Z,23.18
2018-05-08T06:28:46.894Z,23.22
2018-05-08T06:29:19.103Z,23.26
2018-05-08T06:29:51.396Z,23.21
2018-05-08T06:30:24.443Z,23.24
2018-05-08T06:30:58.451Z,23.25
2018-05-08T06:31:32.351Z,23.28
2018-05-08T06:32:07.011Z,23.35
2018-05-08T06:32:40.676Z,23.38
2018-05-08T06:33:13.988Z,23.34
2018-05-08T06:33:46.557Z,23.4
2018-05-08T06:34:19.292Z,23.41
2018-05-08T06:34:53.046Z,23.47
2018-05-08T06:35:26.418Z,23.48
2018-05-08T06:35:58.826Z,23.5
2018-05-08T06:36:31.664Z,23.5
2018-05-08T06:37:05.149Z,23.52
2018-05-08T06:37:38.422Z,23.52
2018-05-08T06:38:10.419Z,23.59
2018-05-08T06:38:42.471Z,23.57
2018-05-08T06:39:14.582Z,23.63
2018-05-08T06:39:46.723Z,23.67
2018-05-08T06:40:18.750Z,23.71
2018-05-08T06:40:50.845Z,23.72
2018-05-08T06:41:23.189Z,23.77
2018-05-08T06:41:55.284Z,23.75
2018-05-08T06:42:27.314Z,23.79
2018-05-08T06:42:59.369Z,23.85
2018-05-08T06:43:31.372Z,23.84
2018-05-08T06:44:03.400Z,23.82
2018-05-08T06:44:35.500Z,23.89
2018-05-08T06:45:07.530Z,23.9
2018-05-08T06:45:39.560Z,23.87
2018-05-08T06:46:11.630Z,23.96
2018-05-08T06:46:43.728Z,23.93
2018-05-08T06:47:15.889Z,23.89
2018-05-08T06:47:47.985Z,24.02
2018-05-08T06:48:20.039Z,23.97
2018-05-08T06:48:52.108Z,24
2018-05-08T06:49:24.782Z,24.09
2018-05-08T06:49:56.826Z,24.03
2018-05-08T06:50:28.890Z,24.14
2018-05-08T06:51:01.208Z,24.12
2018-05-08T06:51:33.253Z,24.14
2018-05-08T06:52:05.282Z,24.18
2018-05-08T06:52:37.355Z,24.14
2018-05-08T06:53:09.394Z,24.21
2018-05-08T06:53:41.451Z,24.22
2018-05-08T06:54:13.489Z,24.26
2018-05-08T06:54:45.545Z,24.22
2018-05-08T06:55:17.571Z,24.24